sensor_id;sensor_type;location;lat;lon;timestamp;temperature;humidity
51908;DHT22;39320;53.214;6.556;2023-07-13T00:01:54;18.70;99.90
51908;DHT22;39320;53.214;6.556;2023-07-13T00:04:22;18.70;99.90
51908;DHT22;39320;53.214;6.556;2023-07-13T00:06:48;18.70;99.90
51908;DHT22;39320;53.214;6.556;2023-07-13T00:09:17;18.70;99.90
51908;DHT22;39320;53.214;6.556;2023-07-13T00:11:43;18.60;99.90
51908;DHT22;39320;53.214;6.556;2023-07-13T00:14:10;18.60;99.90
51908;DHT22;39320;53.214;6.556;2023-07-13T00:16:38;18.50;99.90
51908;DHT22;39320;53.214;6.556;2023-07-13T00:19:05;18.60;99.90
51908;DHT22;39320;53.214;6.556;2023-07-13T00:21:30;18.60;99.90
51908;DHT22;39320;53.214;6.556;2023-07-13T00:23:56;18.60;99.90
51908;DHT22;39320;53.214;6.556;2023-07-13T00:26:23;18.60;99.90
51908;DHT22;39320;53.214;6.556;2023-07-13T00:28:48;18.60;99.90
51908;DHT22;39320;53.214;6.556;2023-07-13T00:31:14;18.60;99.90
51908;DHT22;39320;53.214;6.556;2023-07-13T00:33:41;18.60;99.90
51908;DHT22;39320;53.214;6.556;2023-07-13T00:36:08;18.60;99.90
51908;DHT22;39320;53.214;6.556;2023-07-13T00:38:33;18.60;99.90
51908;DHT22;39320;53.214;6.556;2023-07-13T00:40:59;18.70;99.90
51908;DHT22;39320;53.214;6.556;2023-07-13T00:43:27;18.60;99.90
51908;DHT22;39320;53.214;6.556;2023-07-13T00:48:21;18.60;99.90
51908;DHT22;39320;53.214;6.556;2023-07-13T00:50:52;18.50;99.90
51908;DHT22;39320;53.214;6.556;2023-07-13T00:53:20;18.60;99.90
51908;DHT22;39320;53.214;6.556;2023-07-13T00:55:47;18.60;99.90
51908;DHT22;39320;53.214;6.556;2023-07-13T00:58:14;18.60;99.90
51908;DHT22;39320;53.214;6.556;2023-07-13T01:00:41;18.60;99.90
51908;DHT22;39320;53.214;6.556;2023-07-13T01:03:07;18.60;99.90
51908;DHT22;39320;53.214;6.556;2023-07-13T01:05:34;18.60;99.90
51908;DHT22;39320;53.214;6.556;2023-07-13T01:08:02;18.60;99.90
51908;DHT22;39320;53.214;6.556;2023-07-13T01:10:30;18.60;99.90
51908;DHT22;39320;53.214;6.556;2023-07-13T01:13:10;18.60;99.90
51908;DHT22;39320;53.214;6.556;2023-07-13T01:15:45;18.60;99.90
51908;DHT22;39320;53.214;6.556;2023-07-13T01:18:15;18.50;99.90
51908;DHT22;39320;53.214;6.556;2023-07-13T01:20:51;18.60;99.90
51908;DHT22;39320;53.214;6.556;2023-07-13T01:23:16;18.50;99.90
51908;DHT22;39320;53.214;6.556;2023-07-13T01:25:42;18.50;99.90
51908;DHT22;39320;53.214;6.556;2023-07-13T01:28:09;18.40;99.90
51908;DHT22;39320;53.214;6.556;2023-07-13T01:30:36;18.40;99.90
51908;DHT22;39320;53.214;6.556;2023-07-13T01:33:03;18.40;99.90
51908;DHT22;39320;53.214;6.556;2023-07-13T01:35:29;18.40;99.90
51908;DHT22;39320;53.214;6.556;2023-07-13T01:37:55;18.40;99.90
51908;DHT22;39320;53.214;6.556;2023-07-13T01:40:22;18.40;99.90
51908;DHT22;39320;53.214;6.556;2023-07-13T01:42:48;18.30;99.90
51908;DHT22;39320;53.214;6.556;2023-07-13T01:45:14;18.30;99.90
51908;DHT22;39320;53.214;6.556;2023-07-13T01:47:40;18.30;99.90
51908;DHT22;39320;53.214;6.556;2023-07-13T01:50:06;18.20;99.90
51908;DHT22;39320;53.214;6.556;2023-07-13T01:52:31;18.30;99.90
51908;DHT22;39320;53.214;6.556;2023-07-13T01:54:57;18.20;99.90
51908;DHT22;39320;53.214;6.556;2023-07-13T01:57:23;18.20;99.90
51908;DHT22;39320;53.214;6.556;2023-07-13T01:59:49;18.20;99.90
51908;DHT22;39320;53.214;6.556;2023-07-13T02:02:14;18.10;99.90
51908;DHT22;39320;53.214;6.556;2023-07-13T02:04:40;18.00;99.90
51908;DHT22;39320;53.214;6.556;2023-07-13T02:07:07;18.10;99.90
51908;DHT22;39320;53.214;6.556;2023-07-13T02:09:33;18.10;99.90
51908;DHT22;39320;53.214;6.556;2023-07-13T02:12:00;18.20;99.90
51908;DHT22;39320;53.214;6.556;2023-07-13T02:14:26;18.20;99.90
51908;DHT22;39320;53.214;6.556;2023-07-13T02:16:52;18.20;99.90
51908;DHT22;39320;53.214;6.556;2023-07-13T02:19:18;18.30;99.90
51908;DHT22;39320;53.214;6.556;2023-07-13T02:21:43;18.30;99.90
51908;DHT22;39320;53.214;6.556;2023-07-13T02:24:09;18.40;99.90
51908;DHT22;39320;53.214;6.556;2023-07-13T02:26:35;18.30;99.90
51908;DHT22;39320;53.214;6.556;2023-07-13T02:29:01;18.30;99.90
51908;DHT22;39320;53.214;6.556;2023-07-13T02:31:27;18.30;99.90
51908;DHT22;39320;53.214;6.556;2023-07-13T02:33:53;18.20;99.90
51908;DHT22;39320;53.214;6.556;2023-07-13T02:36:18;18.30;99.90
51908;DHT22;39320;53.214;6.556;2023-07-13T02:38:45;18.20;99.90
51908;DHT22;39320;53.214;6.556;2023-07-13T02:41:11;18.10;99.90
51908;DHT22;39320;53.214;6.556;2023-07-13T02:43:38;18.10;99.90
51908;DHT22;39320;53.214;6.556;2023-07-13T02:46:03;18.20;99.90
51908;DHT22;39320;53.214;6.556;2023-07-13T02:48:37;18.20;99.90
51908;DHT22;39320;53.214;6.556;2023-07-13T02:51:04;18.20;99.90
51908;DHT22;39320;53.214;6.556;2023-07-13T02:53:30;18.20;99.90
51908;DHT22;39320;53.214;6.556;2023-07-13T02:55:56;18.20;99.90
51908;DHT22;39320;53.214;6.556;2023-07-13T02:58:22;18.20;99.90
51908;DHT22;39320;53.214;6.556;2023-07-13T03:00:48;18.10;99.90
51908;DHT22;39320;53.214;6.556;2023-07-13T03:03:16;18.10;99.90
51908;DHT22;39320;53.214;6.556;2023-07-13T03:05:43;18.10;99.90
51908;DHT22;39320;53.214;6.556;2023-07-13T03:08:11;18.10;99.90
51908;DHT22;39320;53.214;6.556;2023-07-13T03:10:37;18.20;99.90
51908;DHT22;39320;53.214;6.556;2023-07-13T03:13:05;18.20;99.90
51908;DHT22;39320;53.214;6.556;2023-07-13T03:15:31;18.20;99.90
51908;DHT22;39320;53.214;6.556;2023-07-13T03:17:57;18.10;99.90
51908;DHT22;39320;53.214;6.556;2023-07-13T03:20:22;18.10;99.90
51908;DHT22;39320;53.214;6.556;2023-07-13T03:22:48;18.00;99.90
51908;DHT22;39320;53.214;6.556;2023-07-13T03:25:14;17.90;99.90
51908;DHT22;39320;53.214;6.556;2023-07-13T03:27:40;17.90;99.90
51908;DHT22;39320;53.214;6.556;2023-07-13T03:30:06;17.90;99.90
51908;DHT22;39320;53.214;6.556;2023-07-13T03:32:32;17.90;99.90
51908;DHT22;39320;53.214;6.556;2023-07-13T03:34:58;17.90;99.90
51908;DHT22;39320;53.214;6.556;2023-07-13T03:37:24;17.90;99.90
51908;DHT22;39320;53.214;6.556;2023-07-13T03:39:50;17.90;99.90
51908;DHT22;39320;53.214;6.556;2023-07-13T03:42:16;17.90;99.90
51908;DHT22;39320;53.214;6.556;2023-07-13T03:44:42;17.80;99.90
51908;DHT22;39320;53.214;6.556;2023-07-13T03:47:11;17.90;99.90
51908;DHT22;39320;53.214;6.556;2023-07-13T03:49:37;17.80;99.90
51908;DHT22;39320;53.214;6.556;2023-07-13T03:52:03;17.80;99.90
51908;DHT22;39320;53.214;6.556;2023-07-13T03:54:29;17.80;99.90
51908;DHT22;39320;53.214;6.556;2023-07-13T03:56:55;17.80;99.90
51908;DHT22;39320;53.214;6.556;2023-07-13T03:59:21;17.80;99.90
51908;DHT22;39320;53.214;6.556;2023-07-13T04:01:47;17.70;99.90
51908;DHT22;39320;53.214;6.556;2023-07-13T04:04:13;17.70;99.90
51908;DHT22;39320;53.214;6.556;2023-07-13T04:06:38;17.70;99.90
51908;DHT22;39320;53.214;6.556;2023-07-13T04:09:04;17.60;99.90
51908;DHT22;39320;53.214;6.556;2023-07-13T04:11:34;17.70;99.90
51908;DHT22;39320;53.214;6.556;2023-07-13T04:14:02;17.70;99.90
51908;DHT22;39320;53.214;6.556;2023-07-13T04:16:31;17.60;99.90
51908;DHT22;39320;53.214;6.556;2023-07-13T04:18:56;17.70;99.90
51908;DHT22;39320;53.214;6.556;2023-07-13T04:21:27;17.70;99.90
51908;DHT22;39320;53.214;6.556;2023-07-13T04:23:54;17.70;99.90
51908;DHT22;39320;53.214;6.556;2023-07-13T04:26:20;17.70;99.90
51908;DHT22;39320;53.214;6.556;2023-07-13T04:28:48;17.80;99.90
51908;DHT22;39320;53.214;6.556;2023-07-13T04:31:14;17.80;99.90
51908;DHT22;39320;53.214;6.556;2023-07-13T04:33:40;17.70;99.90
51908;DHT22;39320;53.214;6.556;2023-07-13T04:36:06;17.60;99.90
51908;DHT22;39320;53.214;6.556;2023-07-13T04:38:35;17.70;99.90
51908;DHT22;39320;53.214;6.556;2023-07-13T04:41:06;17.70;99.90
51908;DHT22;39320;53.214;6.556;2023-07-13T04:43:32;17.70;99.90
51908;DHT22;39320;53.214;6.556;2023-07-13T04:46:04;17.70;99.90
51908;DHT22;39320;53.214;6.556;2023-07-13T04:48:31;17.70;99.90
51908;DHT22;39320;53.214;6.556;2023-07-13T04:50:57;17.70;99.90
51908;DHT22;39320;53.214;6.556;2023-07-13T04:53:24;17.60;99.90
51908;DHT22;39320;53.214;6.556;2023-07-13T04:55:50;17.70;99.90
51908;DHT22;39320;53.214;6.556;2023-07-13T04:58:16;17.70;99.90
51908;DHT22;39320;53.214;6.556;2023-07-13T05:00:42;17.80;99.90
51908;DHT22;39320;53.214;6.556;2023-07-13T05:03:17;17.80;99.90
51908;DHT22;39320;53.214;6.556;2023-07-13T05:05:43;17.80;99.90
51908;DHT22;39320;53.214;6.556;2023-07-13T05:08:08;17.80;99.90
51908;DHT22;39320;53.214;6.556;2023-07-13T05:10:35;17.80;99.90
51908;DHT22;39320;53.214;6.556;2023-07-13T05:13:01;17.80;99.90
51908;DHT22;39320;53.214;6.556;2023-07-13T05:15:27;17.90;99.90
51908;DHT22;39320;53.214;6.556;2023-07-13T05:17:52;17.90;99.90
51908;DHT22;39320;53.214;6.556;2023-07-13T05:20:19;17.80;99.90
51908;DHT22;39320;53.214;6.556;2023-07-13T05:22:45;17.90;99.90
51908;DHT22;39320;53.214;6.556;2023-07-13T05:25:14;17.80;99.90
51908;DHT22;39320;53.214;6.556;2023-07-13T05:27:40;17.90;99.90
51908;DHT22;39320;53.214;6.556;2023-07-13T05:30:06;17.90;99.90
51908;DHT22;39320;53.214;6.556;2023-07-13T05:32:33;17.90;99.90
51908;DHT22;39320;53.214;6.556;2023-07-13T05:34:59;17.90;99.90
51908;DHT22;39320;53.214;6.556;2023-07-13T05:37:24;17.90;99.90
51908;DHT22;39320;53.214;6.556;2023-07-13T05:39:50;18.00;99.90
51908;DHT22;39320;53.214;6.556;2023-07-13T05:42:16;18.00;99.90
51908;DHT22;39320;53.214;6.556;2023-07-13T05:44:42;18.00;99.90
51908;DHT22;39320;53.214;6.556;2023-07-13T05:47:10;18.10;99.90
51908;DHT22;39320;53.214;6.556;2023-07-13T05:49:36;18.10;99.90
51908;DHT22;39320;53.214;6.556;2023-07-13T05:52:07;18.10;99.90
51908;DHT22;39320;53.214;6.556;2023-07-13T05:54:33;18.10;99.90
51908;DHT22;39320;53.214;6.556;2023-07-13T05:56:59;18.10;99.90
51908;DHT22;39320;53.214;6.556;2023-07-13T05:59:25;18.10;99.90
51908;DHT22;39320;53.214;6.556;2023-07-13T06:01:51;18.10;99.90
51908;DHT22;39320;53.214;6.556;2023-07-13T06:04:18;18.10;99.90
51908;DHT22;39320;53.214;6.556;2023-07-13T06:06:44;18.10;99.90
51908;DHT22;39320;53.214;6.556;2023-07-13T06:09:10;18.20;99.90
51908;DHT22;39320;53.214;6.556;2023-07-13T06:11:36;18.20;99.90
51908;DHT22;39320;53.214;6.556;2023-07-13T06:14:02;18.20;99.90
51908;DHT22;39320;53.214;6.556;2023-07-13T06:16:29;18.30;99.90
51908;DHT22;39320;53.214;6.556;2023-07-13T06:18:55;18.30;99.90
51908;DHT22;39320;53.214;6.556;2023-07-13T06:21:22;18.30;99.90
51908;DHT22;39320;53.214;6.556;2023-07-13T06:23:50;18.50;99.90
51908;DHT22;39320;53.214;6.556;2023-07-13T06:26:17;18.40;99.90
51908;DHT22;39320;53.214;6.556;2023-07-13T06:28:43;18.40;99.90
51908;DHT22;39320;53.214;6.556;2023-07-13T06:31:11;18.40;99.90
51908;DHT22;39320;53.214;6.556;2023-07-13T06:33:37;18.50;99.90
51908;DHT22;39320;53.214;6.556;2023-07-13T06:36:05;18.50;99.90
51908;DHT22;39320;53.214;6.556;2023-07-13T06:38:33;18.50;99.90
51908;DHT22;39320;53.214;6.556;2023-07-13T06:41:00;18.60;99.90
51908;DHT22;39320;53.214;6.556;2023-07-13T06:43:26;18.60;99.90
51908;DHT22;39320;53.214;6.556;2023-07-13T06:45:54;18.50;99.90
51908;DHT22;39320;53.214;6.556;2023-07-13T06:48:21;18.60;99.90
51908;DHT22;39320;53.214;6.556;2023-07-13T06:50:48;18.70;99.90
51908;DHT22;39320;53.214;6.556;2023-07-13T06:53:15;18.70;99.90
51908;DHT22;39320;53.214;6.556;2023-07-13T06:55:43;18.80;99.90
51908;DHT22;39320;53.214;6.556;2023-07-13T06:58:09;18.80;99.90
51908;DHT22;39320;53.214;6.556;2023-07-13T07:00:35;18.90;99.90
51908;DHT22;39320;53.214;6.556;2023-07-13T07:03:01;18.90;99.90
51908;DHT22;39320;53.214;6.556;2023-07-13T07:05:27;19.00;99.90
51908;DHT22;39320;53.214;6.556;2023-07-13T07:07:54;19.00;99.90
51908;DHT22;39320;53.214;6.556;2023-07-13T07:10:21;19.10;99.90
51908;DHT22;39320;53.214;6.556;2023-07-13T07:12:47;19.10;99.90
51908;DHT22;39320;53.214;6.556;2023-07-13T07:15:13;19.10;99.90
51908;DHT22;39320;53.214;6.556;2023-07-13T07:17:39;19.20;99.90
51908;DHT22;39320;53.214;6.556;2023-07-13T07:20:07;19.20;99.90
51908;DHT22;39320;53.214;6.556;2023-07-13T07:22:33;19.20;99.90
51908;DHT22;39320;53.214;6.556;2023-07-13T07:25:02;19.20;99.90
51908;DHT22;39320;53.214;6.556;2023-07-13T07:27:27;19.10;99.90
51908;DHT22;39320;53.214;6.556;2023-07-13T07:29:53;19.10;99.90
51908;DHT22;39320;53.214;6.556;2023-07-13T07:32:21;19.10;99.90
51908;DHT22;39320;53.214;6.556;2023-07-13T07:34:47;19.00;99.90
51908;DHT22;39320;53.214;6.556;2023-07-13T07:37:13;19.00;99.90
51908;DHT22;39320;53.214;6.556;2023-07-13T07:39:39;19.00;99.90
51908;DHT22;39320;53.214;6.556;2023-07-13T07:42:06;19.10;99.90
51908;DHT22;39320;53.214;6.556;2023-07-13T07:44:32;19.00;99.90
51908;DHT22;39320;53.214;6.556;2023-07-13T07:46:58;19.00;99.90
51908;DHT22;39320;53.214;6.556;2023-07-13T07:49:24;19.10;99.90
51908;DHT22;39320;53.214;6.556;2023-07-13T07:51:51;19.10;99.90
51908;DHT22;39320;53.214;6.556;2023-07-13T07:54:17;19.30;99.90
51908;DHT22;39320;53.214;6.556;2023-07-13T07:56:43;19.50;99.90
51908;DHT22;39320;53.214;6.556;2023-07-13T07:59:08;19.10;99.90
51908;DHT22;39320;53.214;6.556;2023-07-13T08:01:35;19.10;99.90
51908;DHT22;39320;53.214;6.556;2023-07-13T08:04:01;19.00;99.90
51908;DHT22;39320;53.214;6.556;2023-07-13T08:06:26;19.10;99.90
51908;DHT22;39320;53.214;6.556;2023-07-13T08:08:52;19.00;99.90
51908;DHT22;39320;53.214;6.556;2023-07-13T08:11:18;19.00;99.90
51908;DHT22;39320;53.214;6.556;2023-07-13T08:13:44;19.00;99.90
51908;DHT22;39320;53.214;6.556;2023-07-13T08:16:10;18.90;99.90
51908;DHT22;39320;53.214;6.556;2023-07-13T08:18:37;18.90;99.90
51908;DHT22;39320;53.214;6.556;2023-07-13T08:21:05;18.80;99.90
51908;DHT22;39320;53.214;6.556;2023-07-13T08:23:31;18.80;99.90
51908;DHT22;39320;53.214;6.556;2023-07-13T08:25:58;18.70;99.90
51908;DHT22;39320;53.214;6.556;2023-07-13T08:28:24;18.80;99.90
51908;DHT22;39320;53.214;6.556;2023-07-13T08:30:50;18.80;99.90
51908;DHT22;39320;53.214;6.556;2023-07-13T08:33:18;18.80;99.90
51908;DHT22;39320;53.214;6.556;2023-07-13T08:35:48;18.90;99.90
51908;DHT22;39320;53.214;6.556;2023-07-13T08:38:15;18.90;99.90
51908;DHT22;39320;53.214;6.556;2023-07-13T08:40:42;18.90;99.90
51908;DHT22;39320;53.214;6.556;2023-07-13T08:43:16;19.00;99.90
51908;DHT22;39320;53.214;6.556;2023-07-13T08:50:58;19.10;99.90
51908;DHT22;39320;53.214;6.556;2023-07-13T08:53:34;19.20;99.90
51908;DHT22;39320;53.214;6.556;2023-07-13T08:56:01;19.20;99.90
51908;DHT22;39320;53.214;6.556;2023-07-13T08:58:27;19.30;99.90
51908;DHT22;39320;53.214;6.556;2023-07-13T09:01:15;19.50;99.90
51908;DHT22;39320;53.214;6.556;2023-07-13T09:06:16;19.60;99.90
51908;DHT22;39320;53.214;6.556;2023-07-13T09:11:56;19.50;99.90
51908;DHT22;39320;53.214;6.556;2023-07-13T09:14:45;19.50;99.90
51908;DHT22;39320;53.214;6.556;2023-07-13T09:17:18;19.50;99.90
51908;DHT22;39320;53.214;6.556;2023-07-13T09:19:48;19.50;99.90
51908;DHT22;39320;53.214;6.556;2023-07-13T09:22:19;19.40;99.90
51908;DHT22;39320;53.214;6.556;2023-07-13T09:24:59;19.50;99.90
51908;DHT22;39320;53.214;6.556;2023-07-13T09:27:36;19.50;99.90
51908;DHT22;39320;53.214;6.556;2023-07-13T09:30:23;19.50;99.90
51908;DHT22;39320;53.214;6.556;2023-07-13T09:32:51;19.60;99.90
51908;DHT22;39320;53.214;6.556;2023-07-13T09:35:23;19.60;99.90
51908;DHT22;39320;53.214;6.556;2023-07-13T09:37:56;19.70;99.90
51908;DHT22;39320;53.214;6.556;2023-07-13T09:43:24;19.80;99.90
51908;DHT22;39320;53.214;6.556;2023-07-13T09:45:51;19.80;99.90
51908;DHT22;39320;53.214;6.556;2023-07-13T09:48:18;19.90;99.90
51908;DHT22;39320;53.214;6.556;2023-07-13T09:50:44;20.00;99.90
51908;DHT22;39320;53.214;6.556;2023-07-13T09:53:18;20.00;99.90
51908;DHT22;39320;53.214;6.556;2023-07-13T09:55:46;20.00;99.90
51908;DHT22;39320;53.214;6.556;2023-07-13T09:58:25;20.00;99.90
51908;DHT22;39320;53.214;6.556;2023-07-13T10:00:57;20.00;99.90
51908;DHT22;39320;53.214;6.556;2023-07-13T10:03:27;20.00;99.90
51908;DHT22;39320;53.214;6.556;2023-07-13T10:06:09;19.90;99.90
51908;DHT22;39320;53.214;6.556;2023-07-13T10:08:36;20.00;99.90
51908;DHT22;39320;53.214;6.556;2023-07-13T10:11:29;19.90;99.90
51908;DHT22;39320;53.214;6.556;2023-07-13T10:14:00;19.90;99.90
51908;DHT22;39320;53.214;6.556;2023-07-13T10:16:34;19.90;99.90
51908;DHT22;39320;53.214;6.556;2023-07-13T10:19:21;19.90;99.90
51908;DHT22;39320;53.214;6.556;2023-07-13T10:21:56;20.00;99.90
51908;DHT22;39320;53.214;6.556;2023-07-13T10:24:25;20.00;99.90
51908;DHT22;39320;53.214;6.556;2023-07-13T10:27:01;20.10;99.90
51908;DHT22;39320;53.214;6.556;2023-07-13T10:29:34;20.20;99.90
51908;DHT22;39320;53.214;6.556;2023-07-13T10:32:02;20.20;99.90
51908;DHT22;39320;53.214;6.556;2023-07-13T10:34:28;20.20;99.90
51908;DHT22;39320;53.214;6.556;2023-07-13T10:36:54;20.30;99.90
51908;DHT22;39320;53.214;6.556;2023-07-13T10:39:27;20.30;99.90
51908;DHT22;39320;53.214;6.556;2023-07-13T10:42:00;20.30;99.90
51908;DHT22;39320;53.214;6.556;2023-07-13T10:44:30;20.30;99.90
51908;DHT22;39320;53.214;6.556;2023-07-13T10:47:02;20.30;99.90
51908;DHT22;39320;53.214;6.556;2023-07-13T10:49:31;20.30;99.90
51908;DHT22;39320;53.214;6.556;2023-07-13T10:51:57;20.50;99.90
51908;DHT22;39320;53.214;6.556;2023-07-13T10:54:33;20.30;99.90
51908;DHT22;39320;53.214;6.556;2023-07-13T10:57:20;20.20;99.90
51908;DHT22;39320;53.214;6.556;2023-07-13T11:02:38;20.30;99.90
51908;DHT22;39320;53.214;6.556;2023-07-13T11:05:28;20.30;99.90
51908;DHT22;39320;53.214;6.556;2023-07-13T11:08:18;20.30;99.90
51908;DHT22;39320;53.214;6.556;2023-07-13T11:10:53;20.30;99.90
51908;DHT22;39320;53.214;6.556;2023-07-13T11:16:34;20.30;99.90
51908;DHT22;39320;53.214;6.556;2023-07-13T11:21:31;20.40;99.90
51908;DHT22;39320;53.214;6.556;2023-07-13T11:31:59;20.70;99.90
51908;DHT22;39320;53.214;6.556;2023-07-13T11:34:31;20.60;99.90
51908;DHT22;39320;53.214;6.556;2023-07-13T11:37:00;20.50;99.90
51908;DHT22;39320;53.214;6.556;2023-07-13T11:39:29;20.50;99.90
51908;DHT22;39320;53.214;6.556;2023-07-13T11:42:05;20.60;99.90
51908;DHT22;39320;53.214;6.556;2023-07-13T11:44:34;20.60;99.90
51908;DHT22;39320;53.214;6.556;2023-07-13T11:47:09;20.70;99.90
51908;DHT22;39320;53.214;6.556;2023-07-13T11:49:44;20.80;99.90
51908;DHT22;39320;53.214;6.556;2023-07-13T11:52:18;20.80;99.90
51908;DHT22;39320;53.214;6.556;2023-07-13T11:54:54;20.70;99.90
51908;DHT22;39320;53.214;6.556;2023-07-13T11:57:31;20.70;99.90
51908;DHT22;39320;53.214;6.556;2023-07-13T12:00:08;20.80;99.90
51908;DHT22;39320;53.214;6.556;2023-07-13T12:02:39;20.80;99.90
51908;DHT22;39320;53.214;6.556;2023-07-13T12:05:11;20.90;99.90
51908;DHT22;39320;53.214;6.556;2023-07-13T12:07:38;20.90;99.90
51908;DHT22;39320;53.214;6.556;2023-07-13T12:10:24;20.90;99.90
51908;DHT22;39320;53.214;6.556;2023-07-13T12:13:02;21.00;99.90
51908;DHT22;39320;53.214;6.556;2023-07-13T12:15:43;21.00;99.90
51908;DHT22;39320;53.214;6.556;2023-07-13T12:18:30;21.00;99.90
51908;DHT22;39320;53.214;6.556;2023-07-13T12:20:58;21.10;99.90
51908;DHT22;39320;53.214;6.556;2023-07-13T12:23:29;21.20;99.90
51908;DHT22;39320;53.214;6.556;2023-07-13T12:25:57;21.20;99.90
51908;DHT22;39320;53.214;6.556;2023-07-13T12:31:40;21.30;99.90
51908;DHT22;39320;53.214;6.556;2023-07-13T12:34:09;21.30;99.90
51908;DHT22;39320;53.214;6.556;2023-07-13T12:36:40;21.20;99.90
51908;DHT22;39320;53.214;6.556;2023-07-13T12:39:22;21.20;99.90
51908;DHT22;39320;53.214;6.556;2023-07-13T12:41:50;21.20;99.90
51908;DHT22;39320;53.214;6.556;2023-07-13T12:44:20;21.10;99.90
51908;DHT22;39320;53.214;6.556;2023-07-13T12:47:04;21.30;99.90
51908;DHT22;39320;53.214;6.556;2023-07-13T12:49:32;20.90;99.90
51908;DHT22;39320;53.214;6.556;2023-07-13T12:52:03;21.00;99.90
51908;DHT22;39320;53.214;6.556;2023-07-13T12:54:30;21.00;99.90
51908;DHT22;39320;53.214;6.556;2023-07-13T12:56:58;21.00;99.90
51908;DHT22;39320;53.214;6.556;2023-07-13T12:59:27;21.00;99.90
51908;DHT22;39320;53.214;6.556;2023-07-13T13:01:55;21.00;99.90
51908;DHT22;39320;53.214;6.556;2023-07-13T13:04:21;21.00;99.90
51908;DHT22;39320;53.214;6.556;2023-07-13T13:06:48;21.00;99.90
51908;DHT22;39320;53.214;6.556;2023-07-13T13:09:17;21.00;99.90
51908;DHT22;39320;53.214;6.556;2023-07-13T13:11:45;21.00;99.90
51908;DHT22;39320;53.214;6.556;2023-07-13T13:14:11;21.10;99.90
51908;DHT22;39320;53.214;6.556;2023-07-13T13:16:48;21.10;99.90
51908;DHT22;39320;53.214;6.556;2023-07-13T13:19:25;21.20;99.90
51908;DHT22;39320;53.214;6.556;2023-07-13T13:21:53;21.10;99.90
51908;DHT22;39320;53.214;6.556;2023-07-13T13:24:22;21.10;99.90
51908;DHT22;39320;53.214;6.556;2023-07-13T13:26:49;21.10;99.90
51908;DHT22;39320;53.214;6.556;2023-07-13T13:29:18;21.10;99.90
51908;DHT22;39320;53.214;6.556;2023-07-13T13:31:44;21.10;99.90
51908;DHT22;39320;53.214;6.556;2023-07-13T13:34:13;21.10;99.90
51908;DHT22;39320;53.214;6.556;2023-07-13T13:36:40;21.20;99.90
51908;DHT22;39320;53.214;6.556;2023-07-13T13:41:52;21.20;99.90
51908;DHT22;39320;53.214;6.556;2023-07-13T13:44:19;21.10;99.90
51908;DHT22;39320;53.214;6.556;2023-07-13T13:46:47;21.20;99.90
51908;DHT22;39320;53.214;6.556;2023-07-13T13:49:19;21.10;99.90
51908;DHT22;39320;53.214;6.556;2023-07-13T13:51:46;21.00;99.90
51908;DHT22;39320;53.214;6.556;2023-07-13T13:54:14;21.00;99.90
51908;DHT22;39320;53.214;6.556;2023-07-13T13:56:48;21.10;99.90
51908;DHT22;39320;53.214;6.556;2023-07-13T13:59:15;21.20;99.90
51908;DHT22;39320;53.214;6.556;2023-07-13T14:01:45;21.30;99.90
51908;DHT22;39320;53.214;6.556;2023-07-13T14:04:18;21.30;99.90
51908;DHT22;39320;53.214;6.556;2023-07-13T14:06:44;21.30;99.90
51908;DHT22;39320;53.214;6.556;2023-07-13T14:09:16;21.30;99.90
51908;DHT22;39320;53.214;6.556;2023-07-13T14:11:43;21.30;99.90
51908;DHT22;39320;53.214;6.556;2023-07-13T14:14:22;21.50;99.90
51908;DHT22;39320;53.214;6.556;2023-07-13T14:16:49;21.50;99.90
51908;DHT22;39320;53.214;6.556;2023-07-13T14:19:19;21.40;99.90
51908;DHT22;39320;53.214;6.556;2023-07-13T14:21:45;21.30;99.90
51908;DHT22;39320;53.214;6.556;2023-07-13T14:24:13;21.60;99.90
51908;DHT22;39320;53.214;6.556;2023-07-13T14:26:40;21.60;99.90
51908;DHT22;39320;53.214;6.556;2023-07-13T14:29:17;21.60;99.90
51908;DHT22;39320;53.214;6.556;2023-07-13T14:31:44;21.70;99.90
51908;DHT22;39320;53.214;6.556;2023-07-13T14:34:11;21.70;99.90
51908;DHT22;39320;53.214;6.556;2023-07-13T14:36:40;21.70;99.90
51908;DHT22;39320;53.214;6.556;2023-07-13T14:39:17;21.70;99.90
51908;DHT22;39320;53.214;6.556;2023-07-13T14:41:44;21.80;99.90
51908;DHT22;39320;53.214;6.556;2023-07-13T14:44:15;21.70;99.90
51908;DHT22;39320;53.214;6.556;2023-07-13T14:46:41;21.70;99.90
51908;DHT22;39320;53.214;6.556;2023-07-13T14:51:40;21.90;99.90
51908;DHT22;39320;53.214;6.556;2023-07-13T14:54:08;21.90;99.90
51908;DHT22;39320;53.214;6.556;2023-07-13T14:56:35;21.90;99.90
51908;DHT22;39320;53.214;6.556;2023-07-13T14:59:01;21.80;99.90
51908;DHT22;39320;53.214;6.556;2023-07-13T15:01:27;21.70;99.90
51908;DHT22;39320;53.214;6.556;2023-07-13T15:03:56;21.70;99.90
51908;DHT22;39320;53.214;6.556;2023-07-13T15:06:23;21.70;99.90
51908;DHT22;39320;53.214;6.556;2023-07-13T15:08:49;21.60;99.90
51908;DHT22;39320;53.214;6.556;2023-07-13T15:11:15;21.60;99.90
51908;DHT22;39320;53.214;6.556;2023-07-13T15:13:41;21.60;99.90
51908;DHT22;39320;53.214;6.556;2023-07-13T15:16:23;21.50;99.90
51908;DHT22;39320;53.214;6.556;2023-07-13T15:18:50;21.50;99.90
51908;DHT22;39320;53.214;6.556;2023-07-13T15:21:22;21.50;99.90
51908;DHT22;39320;53.214;6.556;2023-07-13T15:23:50;21.50;99.90
51908;DHT22;39320;53.214;6.556;2023-07-13T15:26:17;21.40;99.90
51908;DHT22;39320;53.214;6.556;2023-07-13T15:28:44;21.40;99.90
51908;DHT22;39320;53.214;6.556;2023-07-13T15:31:23;21.50;99.90
51908;DHT22;39320;53.214;6.556;2023-07-13T15:33:53;21.60;99.90
51908;DHT22;39320;53.214;6.556;2023-07-13T15:36:21;21.70;99.90
51908;DHT22;39320;53.214;6.556;2023-07-13T15:38:48;21.60;99.90
51908;DHT22;39320;53.214;6.556;2023-07-13T15:41:16;21.60;99.90
51908;DHT22;39320;53.214;6.556;2023-07-13T15:43:47;21.60;99.90
51908;DHT22;39320;53.214;6.556;2023-07-13T15:46:13;21.70;99.90
51908;DHT22;39320;53.214;6.556;2023-07-13T15:48:39;21.80;99.90
51908;DHT22;39320;53.214;6.556;2023-07-13T15:51:11;21.90;99.90
51908;DHT22;39320;53.214;6.556;2023-07-13T15:53:39;21.90;99.90
51908;DHT22;39320;53.214;6.556;2023-07-13T15:56:33;21.90;99.90
51908;DHT22;39320;53.214;6.556;2023-07-13T15:58:59;21.90;99.90
51908;DHT22;39320;53.214;6.556;2023-07-13T16:01:26;22.00;99.90
51908;DHT22;39320;53.214;6.556;2023-07-13T16:03:52;22.00;99.90
51908;DHT22;39320;53.214;6.556;2023-07-13T16:06:28;21.90;99.90
51908;DHT22;39320;53.214;6.556;2023-07-13T16:08:55;21.80;99.90
51908;DHT22;39320;53.214;6.556;2023-07-13T16:11:26;21.70;99.90
51908;DHT22;39320;53.214;6.556;2023-07-13T16:13:53;21.70;99.90
51908;DHT22;39320;53.214;6.556;2023-07-13T16:16:26;21.80;99.90
51908;DHT22;39320;53.214;6.556;2023-07-13T16:18:59;21.80;99.90
51908;DHT22;39320;53.214;6.556;2023-07-13T16:21:31;21.80;99.90